createdAt,value
2023-05-17T00:00:00.128Z,102322.81
2023-05-17T00:02:29.585Z,102319.13
2023-05-17T00:05:01.520Z,102318.09
2023-05-17T00:07:31.099Z,102324.91
2023-05-17T00:10:00.791Z,102328.28
2023-05-17T00:12:30.545Z,102336.88
2023-05-17T00:15:00.144Z,102325.53
2023-05-17T00:17:29.961Z,102328.22
2023-05-17T00:20:02.982Z,102331.03
2023-05-17T00:22:32.340Z,102331.41
2023-05-17T00:25:02.011Z,102333.50
2023-05-17T00:27:31.695Z,102338.00
2023-05-17T00:30:01.224Z,102330.03
2023-05-17T00:32:33.168Z,102331.59
2023-05-17T00:35:04.007Z,102330.56
2023-05-17T00:37:32.941Z,102329.75
2023-05-17T00:40:02.630Z,102332.53
2023-05-17T00:42:32.417Z,102333.56
2023-05-17T00:45:01.556Z,102332.88
2023-05-17T00:47:31.216Z,102334.00
2023-05-17T00:50:03.022Z,102337.56
2023-05-17T00:52:45.688Z,102328.91
2023-05-17T00:55:15.122Z,102330.59
2023-05-17T00:57:46.097Z,102330.34
2023-05-17T01:00:18.081Z,102330.03
2023-05-17T01:02:49.640Z,102326.97
2023-05-17T01:05:19.125Z,102324.03
2023-05-17T01:07:53.100Z,102326.41
2023-05-17T01:10:23.814Z,102330.50
2023-05-17T01:13:09.705Z,102333.78
2023-05-17T01:15:45.711Z,102333.59
2023-05-17T01:18:23.303Z,102337.81
2023-05-17T01:21:01.124Z,102335.06
2023-05-17T01:23:50.795Z,102335.78
2023-05-17T01:26:36.485Z,102339.25
2023-05-17T01:29:10.629Z,102341.91
2023-05-17T01:31:42.521Z,102340.19
2023-05-17T01:34:22.201Z,102338.41
2023-05-17T01:36:53.550Z,102336.44
2023-05-17T01:39:23.966Z,102345.91
2023-05-17T01:42:10.861Z,102339.88
2023-05-17T01:44:52.816Z,102342.81
2023-05-17T01:47:33.105Z,102348.47
2023-05-17T01:50:03.815Z,102349.56
2023-05-17T01:52:40.532Z,102347.19
2023-05-17T01:55:22.874Z,102346.47
2023-05-17T01:57:59.683Z,102348.28
2023-05-17T02:00:32.420Z,102352.56
2023-05-17T02:03:01.933Z,102352.44
2023-05-17T02:05:32.431Z,102355.94
2023-05-17T02:08:01.813Z,102362.03
2023-05-17T02:10:36.123Z,102353.25
2023-05-17T02:13:07.670Z,102356.53
2023-05-17T02:15:37.478Z,102360.53
2023-05-17T02:18:07.107Z,102359.41
2023-05-17T02:20:38.278Z,102370.53
2023-05-17T02:23:08.470Z,102368.72
2023-05-17T02:25:38.596Z,102372.13
2023-05-17T02:28:11.712Z,102369.47
2023-05-17T02:30:43.358Z,102379.91
2023-05-17T02:33:21.852Z,102378.09
2023-05-17T02:35:53.801Z,102383.31
2023-05-17T02:38:28.184Z,102386.88
2023-05-17T02:40:58.907Z,102388.84
2023-05-17T02:43:33.671Z,102395.16
2023-05-17T02:46:03.153Z,102405.78
2023-05-17T02:48:35.320Z,102392.84
2023-05-17T02:51:05.350Z,102395.44
2023-05-17T02:53:35.026Z,102400.41
2023-05-17T02:56:04.565Z,102398.34
2023-05-17T02:58:36.954Z,102391.97
2023-05-17T03:01:13.128Z,102394.44
2023-05-17T03:03:46.192Z,102398.78
2023-05-17T03:06:17.508Z,102405.91
2023-05-17T03:08:47.716Z,102407.78
2023-05-17T03:11:20.153Z,102404.41
2023-05-17T03:13:52.790Z,102406.22
2023-05-17T03:16:30.132Z,102414.06
2023-05-17T03:19:00.688Z,102411.47
2023-05-17T03:21:31.415Z,102414.13
2023-05-17T03:24:00.787Z,102417.69
2023-05-17T03:26:32.611Z,102419.50
2023-05-17T03:29:03.840Z,102421.16
2023-05-17T03:31:33.670Z,102423.88
2023-05-17T03:34:04.234Z,102427.44
2023-05-17T03:36:36.115Z,102430.94
2023-05-17T03:39:05.645Z,102436.22
2023-05-17T03:41:36.092Z,102438.09
2023-05-17T03:44:08.100Z,102439.94
2023-05-17T03:46:43.082Z,102449.66
2023-05-17T03:49:13.494Z,102448.88
2023-05-17T03:51:44.271Z,102451.50
2023-05-17T03:54:13.303Z,102453.44
2023-05-17T03:56:47.472Z,102457.94
2023-05-17T03:59:18.549Z,102459.81
2023-05-17T04:01:48.063Z,102458.13
2023-05-17T04:04:16.855Z,102463.47
2023-05-17T04:06:45.992Z,102467.03
2023-05-17T04:09:15.881Z,102470.47
2023-05-17T04:11:45.579Z,102481.81
2023-05-17T04:14:18.378Z,102466.75
2023-05-17T04:16:52.147Z,102475.22
2023-05-17T04:19:22.474Z,102477.59
2023-05-17T04:22:07.531Z,102483.72
2023-05-17T04:24:38.098Z,102483.84
2023-05-17T04:27:15.006Z,102484.00
2023-05-17T04:29:49.478Z,102492.13
2023-05-17T04:32:25.667Z,102489.66
2023-05-17T04:34:54.717Z,102500.22
2023-05-17T04:37:25.198Z,102505.72
2023-05-17T04:39:55.621Z,102507.72
2023-05-17T04:42:29.496Z,102504.47
2023-05-17T04:45:14.086Z,102509.03
2023-05-17T04:47:45.941Z,102521.31
2023-05-17T04:50:24.080Z,102526.75
2023-05-17T04:52:56.053Z,102524.22
2023-05-17T04:55:27.540Z,102534.69
2023-05-17T04:58:01.961Z,102534.75
2023-05-17T05:00:32.979Z,102537.53
2023-05-17T05:03:05.354Z,102541.16
2023-05-17T05:05:34.494Z,102550.97
2023-05-17T05:08:05.468Z,102552.84
2023-05-17T05:10:35.546Z,102558.22
2023-05-17T05:13:07.985Z,102550.44
2023-05-17T05:15:39.535Z,102557.53
2023-05-17T05:18:12.421Z,102565.44
2023-05-17T05:20:44.028Z,102565.44
2023-05-17T05:23:13.161Z,102576.91
2023-05-17T05:25:44.869Z,102578.81
2023-05-17T05:28:19.757Z,102577.31
2023-05-17T05:30:51.103Z,102587.13
2023-05-17T05:33:20.458Z,102582.03
2023-05-17T05:35:59.635Z,102601.38
2023-05-17T05:38:31.605Z,102596.19
2023-05-17T05:41:02.093Z,102597.91
2023-05-17T05:43:32.505Z,102609.44
2023-05-17T05:46:03.596Z,102605.34
2023-05-17T05:48:39.673Z,102622.94
2023-05-17T05:51:08.929Z,102619.47
2023-05-17T05:53:49.172Z,102616.97
2023-05-17T05:56:22.011Z,102624.22
2023-05-17T05:58:51.828Z,102620.88
2023-05-17T06:01:25.539Z,102625.28
2023-05-17T06:03:55.146Z,102623.16
2023-05-17T06:06:25.181Z,102618.63
2023-05-17T06:08:57.007Z,102631.38
2023-05-17T06:11:33.833Z,102634.34
2023-05-17T06:14:03.622Z,102631.69
2023-05-17T06:16:36.255Z,102632.63
2023-05-17T06:19:14.707Z,102638.81
2023-05-17T06:21:44.597Z,102639.75
2023-05-17T06:24:13.631Z,102630.94
2023-05-17T06:26:44.643Z,102644.91
2023-05-17T06:29:14.156Z,102646.69
2023-05-17T06:31:46.545Z,102646.59
2023-05-17T06:34:24.235Z,102655.25
2023-05-17T06:36:54.047Z,102662.31
2023-05-17T06:39:25.567Z,102664.06
2023-05-17T06:41:57.180Z,102660.50
2023-05-17T06:44:28.218Z,102671.00
2023-05-17T06:47:02.285Z,102678.94
2023-05-17T06:49:31.867Z,102678.13
2023-05-17T06:52:04.175Z,102680.06
2023-05-17T06:54:34.141Z,102689.91
2023-05-17T06:57:06.154Z,102689.31
2023-05-17T06:59:35.579Z,102699.13
2023-05-17T07:02:12.155Z,102706.91
2023-05-17T07:04:42.207Z,102719.06
2023-05-17T07:07:12.900Z,102706.69
2023-05-17T07:09:42.976Z,102709.41
2023-05-17T07:12:15.468Z,102712.16
2023-05-17T07:14:45.530Z,102710.53
2023-05-17T07:17:20.157Z,102719.50
2023-05-17T07:19:52.282Z,102717.09
2023-05-17T07:22:24.062Z,102725.03
2023-05-17T07:24:57.332Z,102723.38
2023-05-17T07:27:31.162Z,102725.34
2023-05-17T07:30:02.832Z,102733.19
2023-05-17T07:32:33.682Z,102717.91
2023-05-17T07:35:04.146Z,102724.00
2023-05-17T07:37:33.537Z,102731.75
2023-05-17T07:40:05.179Z,102731.63
2023-05-17T07:42:36.201Z,102733.91
2023-05-17T07:45:06.727Z,102730.72
2023-05-17T07:47:38.308Z,102744.16
2023-05-17T07:50:10.266Z,102745.13
2023-05-17T07:52:39.852Z,102744.25
2023-05-17T07:55:13.742Z,102750.56
2023-05-17T07:57:47.619Z,102754.16
2023-05-17T08:00:20.363Z,102754.06
2023-05-17T08:02:52.375Z,102760.28
2023-05-17T08:05:22.411Z,102755.72
2023-05-17T08:08:10.123Z,102758.25
2023-05-17T08:10:42.310Z,102761.91
2023-05-17T08:13:12.580Z,102771.66
2023-05-17T08:15:41.934Z,102770.16
2023-05-17T08:18:13.817Z,102766.84
2023-05-17T08:20:44.663Z,102767.00
2023-05-17T08:23:14.140Z,102770.53
2023-05-17T08:25:44.195Z,102772.28
2023-05-17T08:28:13.662Z,102763.53
2023-05-17T08:30:43.510Z,102769.69
2023-05-17T08:33:15.102Z,102768.06
2023-05-17T08:35:51.245Z,102765.66
2023-05-17T08:38:22.294Z,102768.44
2023-05-17T08:41:02.679Z,102769.38
2023-05-17T08:43:34.181Z,102771.22
2023-05-17T08:46:04.907Z,102768.66
2023-05-17T08:48:42.350Z,102769.63
2023-05-17T08:51:12.524Z,102769.78
2023-05-17T08:53:47.557Z,102777.84
2023-05-17T08:56:20.723Z,102771.75
2023-05-17T08:58:57.852Z,102785.09
2023-05-17T09:01:34.761Z,102787.94
2023-05-17T09:04:13.995Z,102784.50
2023-05-17T09:06:46.787Z,102785.28
2023-05-17T09:09:19.268Z,102785.34
2023-05-17T09:11:49.680Z,102792.44
2023-05-17T09:14:19.959Z,102793.28
2023-05-17T09:16:51.050Z,102795.03
2023-05-17T09:19:25.407Z,102782.69
2023-05-17T09:21:58.964Z,102801.16
2023-05-17T09:24:32.491Z,102804.69
2023-05-17T09:27:12.946Z,102798.56
2023-05-17T09:29:42.964Z,102802.97
2023-05-17T09:32:17.276Z,102814.28
2023-05-17T09:34:52.382Z,102814.97
2023-05-17T09:37:31.738Z,102819.94
2023-05-17T09:40:07.780Z,102821.44
2023-05-17T09:42:41.754Z,102816.88
2023-05-17T09:45:14.795Z,102832.69
2023-05-17T09:47:44.517Z,102824.69
2023-05-17T09:50:25.352Z,102823.84
2023-05-17T09:52:57.205Z,102829.91
2023-05-17T09:55:29.867Z,102829.63
2023-05-17T09:58:06.718Z,102839.09
2023-05-17T10:00:47.209Z,102840.53
2023-05-17T10:03:19.520Z,102843.78
2023-05-17T10:05:54.922Z,102842.06
2023-05-17T10:08:27.581Z,102836.28
2023-05-17T10:11:00.899Z,102835.19
2023-05-17T10:13:36.743Z,102836.59
2023-05-17T10:16:09.425Z,102838.69
2023-05-17T10:18:41.829Z,102830.28
2023-05-17T10:21:14.189Z,102832.22
2023-05-17T10:23:47.384Z,102830.47
2023-05-17T10:26:29.392Z,102828.97
2023-05-17T10:29:18.591Z,102825.88
2023-05-17T10:31:50.238Z,102826.19
2023-05-17T10:34:23.772Z,102826.47
2023-05-17T10:37:11.825Z,102815.38
2023-05-17T10:39:47.833Z,102828.75
2023-05-17T10:42:22.505Z,102837.59
2023-05-17T10:44:56.530Z,102833.16
2023-05-17T10:47:35.862Z,102837.66
2023-05-17T10:50:15.291Z,102835.03
2023-05-17T10:52:57.945Z,102840.28
2023-05-17T10:55:39.620Z,102829.56
2023-05-17T10:58:30.382Z,102837.53
2023-05-17T11:01:08.395Z,102837.59
2023-05-17T11:03:40.090Z,102843.72
2023-05-17T11:06:24.502Z,102833.03
2023-05-17T11:09:18.394Z,102830.44
2023-05-17T11:12:09.389Z,102835.94
2023-05-17T11:14:54.370Z,102829.03
2023-05-17T11:17:28.534Z,102853.16
2023-05-17T11:20:06.529Z,102830.25
2023-05-17T11:22:42.435Z,102826.72
2023-05-17T11:25:18.693Z,102834.66
2023-05-17T11:27:54.065Z,102829.38
2023-05-17T11:30:28.938Z,102836.38
2023-05-17T11:33:05.681Z,102846.94
2023-05-17T11:35:40.649Z,102833.72
2023-05-17T11:38:22.372Z,102839.84
2023-05-17T11:40:56.900Z,102830.88
2023-05-17T11:43:31.331Z,102840.78
2023-05-17T11:46:05.946Z,102836.53
2023-05-17T11:48:37.099Z,102833.94
2023-05-17T11:51:09.918Z,102825.06
2023-05-17T11:53:42.038Z,102841.84
2023-05-17T11:56:13.497Z,102834.72
2023-05-17T11:58:46.483Z,102836.47
2023-05-17T12:01:16.600Z,102836.44
2023-05-17T12:03:50.563Z,102831.28
2023-05-17T12:06:21.126Z,102827.66
2023-05-17T12:08:56.690Z,102826.75
2023-05-17T12:11:29.853Z,102822.16
2023-05-17T12:14:00.217Z,102827.38
2023-05-17T12:16:33.227Z,102831.75
2023-05-17T12:19:09.793Z,102836.28
2023-05-17T12:21:41.172Z,102846.19
2023-05-17T12:24:10.830Z,102831.09
2023-05-17T12:26:45.770Z,102830.53
2023-05-17T12:29:18.471Z,102825.25
2023-05-17T12:31:53.668Z,102825.06
2023-05-17T12:34:23.995Z,102838.00
2023-05-17T12:36:55.315Z,102832.72
2023-05-17T12:39:25.930Z,102824.22
2023-05-17T12:41:57.429Z,102810.16
2023-05-17T12:44:32.136Z,102815.06
2023-05-17T12:47:05.320Z,102817.59
2023-05-17T12:49:41.375Z,102820.22
2023-05-17T12:52:16.448Z,102828.03
2023-05-17T12:54:46.955Z,102822.38
2023-05-17T12:57:22.487Z,102816.25
2023-05-17T12:59:56.143Z,102810.06
2023-05-17T13:02:25.679Z,102812.22
2023-05-17T13:04:56.539Z,102819.91
2023-05-17T13:07:27.799Z,102803.94
2023-05-17T13:09:58.711Z,102816.38
2023-05-17T13:12:30.188Z,102813.81
2023-05-17T13:15:00.374Z,102814.88
2023-05-17T13:17:40.801Z,102813.59
2023-05-17T13:20:11.622Z,102822.28
2023-05-17T13:22:45.987Z,102798.28
2023-05-17T13:25:17.992Z,102819.91
2023-05-17T13:27:50.060Z,102810.72
2023-05-17T13:30:19.376Z,102815.00
2023-05-17T13:32:49.347Z,102801.75
2023-05-17T13:35:18.980Z,102805.84
2023-05-17T13:37:49.108Z,102808.47
2023-05-17T13:40:20.284Z,102810.47
2023-05-17T13:42:51.282Z,102809.69
2023-05-17T13:45:20.361Z,102812.81
2023-05-17T13:47:49.655Z,102810.88
2023-05-17T13:50:22.376Z,102806.41
2023-05-17T13:52:51.903Z,102811.84
2023-05-17T13:55:23.162Z,102811.91
2023-05-17T13:57:54.648Z,102816.19
2023-05-17T14:00:27.197Z,102811.22
2023-05-17T14:02:59.131Z,102808.22
2023-05-17T14:05:29.274Z,102815.81
2023-05-17T14:07:59.705Z,102820.53
2023-05-17T14:10:32.455Z,102815.34
2023-05-17T14:13:03.480Z,102810.66
2023-05-17T14:15:33.106Z,102821.97
2023-05-17T14:18:02.232Z,102815.44
2023-05-17T14:20:36.331Z,102826.09
2023-05-17T14:23:06.147Z,102824.66
2023-05-17T14:25:36.670Z,102831.56
2023-05-17T14:28:07.406Z,102814.31
2023-05-17T14:30:37.386Z,102811.88
2023-05-17T14:33:09.387Z,102818.19
2023-05-17T14:35:40.836Z,102822.59
2023-05-17T14:38:11.201Z,102814.19
2023-05-17T14:40:40.248Z,102805.47
2023-05-17T14:43:12.123Z,102811.22
2023-05-17T14:45:43.649Z,102805.59
2023-05-17T14:48:13.435Z,102808.06
2023-05-17T14:50:43.133Z,102805.44
2023-05-17T14:53:13.249Z,102811.09
2023-05-17T14:55:42.691Z,102814.06
2023-05-17T14:58:13.655Z,102815.91
2023-05-17T15:00:48.572Z,102820.03
2023-05-17T15:03:22.278Z,102818.88
2023-05-17T15:05:57.294Z,102834.03
2023-05-17T15:08:29.744Z,102834.03
2023-05-17T15:11:00.327Z,102836.75
2023-05-17T15:13:32.721Z,102834.63
2023-05-17T15:16:05.594Z,102836.09
2023-05-17T15:18:37.219Z,102835.41
2023-05-17T15:21:08.228Z,102841.72
2023-05-17T15:23:38.668Z,102841.75
2023-05-17T15:26:10.704Z,102833.84
2023-05-17T15:28:43.920Z,102832.53
2023-05-17T15:31:17.692Z,102832.56
2023-05-17T15:33:48.738Z,102833.22
2023-05-17T15:36:17.898Z,102834.41
2023-05-17T15:38:48.062Z,102831.97
2023-05-17T15:41:19.830Z,102833.81
2023-05-17T15:43:56.002Z,102827.63
2023-05-17T15:46:33.662Z,102832.69
2023-05-17T15:49:02.581Z,102829.84
2023-05-17T15:51:32.672Z,102827.41
2023-05-17T15:54:02.110Z,102829.34
2023-05-17T15:56:32.575Z,102827.63
2023-05-17T15:59:03.511Z,102836.53
2023-05-17T16:01:38.253Z,102832.75
2023-05-17T16:04:08.397Z,102832.50
2023-05-17T16:06:38.689Z,102845.22
2023-05-17T16:09:08.626Z,102836.53
2023-05-17T16:11:38.682Z,102839.25
2023-05-17T16:14:10.668Z,102844.47
2023-05-17T16:16:40.066Z,102845.28
2023-05-17T16:19:09.902Z,102843.44
2023-05-17T16:21:39.269Z,102846.84
2023-05-17T16:24:09.425Z,102845.03
2023-05-17T16:26:40.454Z,102844.06
2023-05-17T16:29:13.993Z,102845.69
2023-05-17T16:31:44.160Z,102844.72
2023-05-17T16:34:13.563Z,102852.59
2023-05-17T16:36:47.503Z,102853.31
2023-05-17T16:39:27.615Z,102847.91
2023-05-17T16:41:58.007Z,102848.69
2023-05-17T16:44:29.814Z,102849.56
2023-05-17T16:46:59.523Z,102865.41
2023-05-17T16:49:30.748Z,102856.59
2023-05-17T16:52:00.116Z,102862.06
2023-05-17T16:54:38.155Z,102860.56
2023-05-17T16:57:09.625Z,102860.91
2023-05-17T16:59:41.701Z,102851.19
2023-05-17T17:02:12.576Z,102858.22
2023-05-17T17:04:42.610Z,102854.28
2023-05-17T17:07:20.380Z,102845.41
2023-05-17T17:09:50.232Z,102849.06
2023-05-17T17:12:24.041Z,102859.75
2023-05-17T17:17:42.555Z,102852.72
2023-05-17T17:20:14.672Z,102856.63
2023-05-17T17:22:46.227Z,102859.13
2023-05-17T17:25:17.290Z,102859.88
2023-05-17T17:27:50.518Z,102862.53
2023-05-17T17:30:31.638Z,102858.31
2023-05-17T17:33:02.497Z,102865.78
2023-05-17T17:35:32.003Z,102862.19
2023-05-17T17:38:03.458Z,102862.88
2023-05-17T17:40:34.065Z,102867.84
2023-05-17T17:43:03.632Z,102860.41
2023-05-17T17:45:34.910Z,102864.44
2023-05-17T17:48:04.329Z,102870.25
2023-05-17T17:50:44.245Z,102877.16
2023-05-17T17:53:13.784Z,102871.72
2023-05-17T17:55:42.874Z,102867.28
2023-05-17T17:58:12.177Z,102874.25
2023-05-17T18:00:44.705Z,102875.78
2023-05-17T18:03:14.367Z,102876.44
2023-05-17T18:05:45.674Z,102875.47
2023-05-17T18:08:15.201Z,102877.19
2023-05-17T18:10:45.712Z,102874.53
2023-05-17T18:13:16.382Z,102880.56
2023-05-17T18:15:47.730Z,102886.56
2023-05-17T18:18:18.508Z,102889.88
2023-05-17T18:20:47.416Z,102882.78
2023-05-17T18:23:18.652Z,102884.53
2023-05-17T18:25:53.217Z,102884.59
2023-05-17T18:28:37.550Z,102884.63
2023-05-17T18:31:14.442Z,102895.66
2023-05-17T18:33:44.026Z,102894.31
2023-05-17T18:36:13.680Z,102899.34
2023-05-17T18:38:43.430Z,102902.56
2023-05-17T18:41:12.481Z,102898.81
2023-05-17T18:43:41.746Z,102894.19
2023-05-17T18:46:13.767Z,102905.47
2023-05-17T18:48:43.688Z,102901.78
2023-05-17T18:51:15.873Z,102913.09
2023-05-17T18:53:45.368Z,102904.88
2023-05-17T18:56:16.613Z,102905.50
2023-05-17T18:58:46.391Z,102907.94
2023-05-17T19:01:22.372Z,102902.53
2023-05-17T19:03:55.399Z,102912.13
2023-05-17T19:06:28.019Z,102910.19
2023-05-17T19:09:01.197Z,102912.56
2023-05-17T19:11:32.548Z,102906.09
2023-05-17T19:14:05.222Z,102919.81
2023-05-17T19:16:36.672Z,102908.19
2023-05-17T19:19:07.292Z,102908.94
2023-05-17T19:21:36.466Z,102908.78
2023-05-17T19:24:07.781Z,102912.16
2023-05-17T19:26:37.920Z,102924.31
2023-05-17T19:29:08.009Z,102914.56
2023-05-17T19:31:41.557Z,102918.81
2023-05-17T19:34:12.662Z,102919.69
2023-05-17T19:36:43.787Z,102917.81
2023-05-17T19:39:13.594Z,102919.38
2023-05-17T19:41:42.239Z,102915.69
2023-05-17T19:44:11.773Z,102920.00
2023-05-17T19:46:43.286Z,102917.28
2023-05-17T19:49:13.448Z,102911.06
2023-05-17T19:51:43.694Z,102915.38
2023-05-17T19:54:12.395Z,102915.28
2023-05-17T19:56:42.804Z,102916.13
2023-05-17T19:59:12.303Z,102911.72
2023-05-17T20:01:42.637Z,102912.59
2023-05-17T20:04:11.941Z,102917.81
2023-05-17T20:06:42.186Z,102923.06
2023-05-17T20:09:12.737Z,102914.28
2023-05-17T20:11:41.616Z,102926.50
2023-05-17T20:14:12.672Z,102917.75
2023-05-17T20:16:44.484Z,102918.59
2023-05-17T20:19:14.545Z,102921.19
2023-05-17T20:21:43.464Z,102911.53
2023-05-17T20:26:56.726Z,102910.72
2023-05-17T20:29:33.842Z,102914.19
2023-05-17T20:32:05.010Z,102912.34
2023-05-17T20:34:35.066Z,102918.50
2023-05-17T20:37:04.611Z,102915.06
2023-05-17T20:39:35.502Z,102913.34
2023-05-17T20:42:04.721Z,102911.53
2023-05-17T20:44:34.497Z,102915.78
2023-05-17T20:47:10.731Z,102922.69
2023-05-17T20:49:40.382Z,102921.72
2023-05-17T20:52:10.220Z,102926.84
2023-05-17T20:54:40.822Z,102923.28
2023-05-17T20:57:10.465Z,102927.44
2023-05-17T20:59:40.080Z,102921.25
2023-05-17T21:02:10.933Z,102922.94
2023-05-17T21:04:39.988Z,102925.50
2023-05-17T21:07:10.729Z,102918.50
2023-05-17T21:09:41.359Z,102919.38
2023-05-17T21:12:13.593Z,102922.94
2023-05-17T21:14:42.817Z,102917.69
2023-05-17T21:17:14.240Z,102918.56
2023-05-17T21:19:42.904Z,102921.25
2023-05-17T21:22:11.564Z,102921.25
2023-05-17T21:24:41.058Z,102921.25
2023-05-17T21:27:11.264Z,102926.50
2023-05-17T21:29:40.303Z,102923.88
2023-05-17T21:32:09.822Z,102919.47
2023-05-17T21:34:51.069Z,102917.59
2023-05-17T21:37:33.114Z,102928.00
2023-05-17T21:40:03.302Z,102913.03
2023-05-17T21:42:32.236Z,102919.97
2023-05-17T21:45:01.092Z,102912.06
2023-05-17T21:47:31.797Z,102913.75
2023-05-17T21:50:03.035Z,102917.22
2023-05-17T21:52:32.797Z,102924.16
2023-05-17T21:55:02.105Z,102920.66
2023-05-17T21:57:36.112Z,102920.66
2023-05-17T22:00:09.373Z,102917.13
2023-05-17T22:02:39.965Z,102920.59
2023-05-17T22:05:20.232Z,102914.44
2023-05-17T22:07:52.391Z,102913.56
2023-05-17T22:10:24.647Z,102917.03
2023-05-17T22:12:54.760Z,102917.00
2023-05-17T22:15:29.090Z,102918.75
2023-05-17T22:17:59.243Z,102916.94
2023-05-17T22:20:31.193Z,102908.16
2023-05-17T22:23:01.509Z,102918.59
2023-05-17T22:25:30.941Z,102915.94
2023-05-17T22:28:00.490Z,102912.38
2023-05-17T22:30:34.571Z,102917.63
2023-05-17T22:33:04.405Z,102920.19
2023-05-17T22:35:36.532Z,102909.59
2023-05-17T22:38:06.789Z,102909.47
2023-05-17T22:40:37.040Z,102912.03
2023-05-17T22:43:08.250Z,102913.66
2023-05-17T22:45:45.297Z,102914.44
2023-05-17T22:48:16.053Z,102922.22
2023-05-17T22:50:48.520Z,102932.69
2023-05-17T22:53:21.403Z,102925.59
2023-05-17T22:55:51.755Z,102923.81
2023-05-17T22:58:25.215Z,102928.13
2023-05-17T23:00:54.807Z,102926.28
2023-05-17T23:03:25.190Z,102928.91
2023-05-17T23:06:03.275Z,102924.44
2023-05-17T23:08:32.880Z,102919.19
2023-05-17T23:11:05.097Z,102925.31
2023-05-17T23:13:37.042Z,102920.00
2023-05-17T23:16:08.650Z,102931.34
2023-05-17T23:18:41.193Z,102937.41
2023-05-17T23:21:12.349Z,102927.72
2023-05-17T23:23:42.416Z,102924.16
2023-05-17T23:26:11.841Z,102926.69
2023-05-17T23:28:44.906Z,102926.59
2023-05-17T23:31:16.989Z,102930.75
2023-05-17T23:33:46.890Z,102926.22
2023-05-17T23:36:22.138Z,102922.56
2023-05-17T23:38:52.191Z,102930.28
2023-05-17T23:41:25.868Z,102937.06
2023-05-17T23:43:57.272Z,102927.38
2023-05-17T23:46:27.155Z,102931.66
2023-05-17T23:48:58.984Z,102925.47
2023-05-17T23:51:33.588Z,102916.66
2023-05-17T23:54:02.931Z,102933.19
2023-05-17T23:56:32.551Z,102925.28
2023-05-17T23:59:02.478Z,102926.16
